createdAt,value
2019-06-07T00:01:25.732Z,16.50
2019-06-07T00:03:55.904Z,16.50
2019-06-07T00:06:29.145Z,16.60
2019-06-07T00:08:59.337Z,16.70
2019-06-07T00:11:29.559Z,16.90
2019-06-07T00:13:59.796Z,16.90
2019-06-07T00:16:29.960Z,17.00
2019-06-07T00:19:00.130Z,17.00
2019-06-07T00:22:12.843Z,16.80
2019-06-07T00:24:02.021Z,16.70
2019-06-07T00:26:32.265Z,16.50
2019-06-07T00:29:03.523Z,16.50
2019-06-07T00:31:33.793Z,16.50
2019-06-07T00:34:04.031Z,16.50
2019-06-07T00:36:34.275Z,16.50
2019-06-07T00:39:06.736Z,16.40
2019-06-07T00:41:37.151Z,16.40
2019-06-07T00:44:07.327Z,16.40
2019-06-07T00:46:37.589Z,16.40
2019-06-07T00:49:07.672Z,16.50
2019-06-07T00:51:49.952Z,16.60
2019-06-07T00:54:09.629Z,16.60
2019-06-07T00:56:40.453Z,16.50
2019-06-07T00:59:14.332Z,16.60
2019-06-07T01:01:43.701Z,16.50
2019-06-07T01:04:17.781Z,16.50
2019-06-07T01:06:45.714Z,16.60
2019-06-07T01:09:17.366Z,16.60
2019-06-07T01:11:47.676Z,16.60
2019-06-07T01:14:19.373Z,16.60
2019-06-07T01:16:57.546Z,16.60
2019-06-07T01:19:24.407Z,16.50
2019-06-07T01:21:53.214Z,16.50
2019-06-07T01:24:25.773Z,16.50
2019-06-07T01:26:55.185Z,16.60
2019-06-07T01:29:29.456Z,16.60
2019-06-07T01:31:57.193Z,16.60
2019-06-07T01:34:28.662Z,16.60
2019-06-07T01:36:59.170Z,16.60
2019-06-07T01:39:31.643Z,16.60
2019-06-07T01:42:01.118Z,16.50
2019-06-07T01:44:31.464Z,16.60
2019-06-07T01:47:01.747Z,16.50
2019-06-07T01:49:32.008Z,16.60
2019-06-07T01:52:03.189Z,16.60
2019-06-07T01:54:57.318Z,16.50
2019-06-07T01:57:05.368Z,16.50
2019-06-07T01:59:35.541Z,16.50
2019-06-07T02:02:05.796Z,16.40
2019-06-07T02:04:35.942Z,16.40
2019-06-07T02:07:09.051Z,16.40
2019-06-07T02:09:39.215Z,16.40
2019-06-07T02:12:25.591Z,16.40
2019-06-07T02:14:41.153Z,16.30
2019-06-07T02:17:11.321Z,16.20
2019-06-07T02:19:41.481Z,16.20
2019-06-07T02:22:11.582Z,16.20
2019-06-07T02:24:41.795Z,16.20
2019-06-07T02:27:11.898Z,16.10
2019-06-07T02:29:42.081Z,16.10
2019-06-07T02:32:12.107Z,16.20
2019-06-07T02:34:42.268Z,16.30
2019-06-07T02:37:12.279Z,16.30
2019-06-07T02:39:42.376Z,16.30
2019-06-07T02:42:12.477Z,16.30
2019-06-07T02:44:42.772Z,16.20
2019-06-07T02:47:12.942Z,16.10
2019-06-07T02:49:44.643Z,16.10
2019-06-07T02:52:14.974Z,16.20
2019-06-07T02:54:45.134Z,16.20
2019-06-07T02:57:15.353Z,16.10
2019-06-07T03:00:06.769Z,16.20
2019-06-07T03:02:17.403Z,16.20
2019-06-07T03:04:47.644Z,16.20
2019-06-07T03:07:18.745Z,16.30
2019-06-07T03:09:49.099Z,16.20
2019-06-07T03:12:22.511Z,16.20
2019-06-07T03:14:54.543Z,16.20
2019-06-07T03:17:38.888Z,16.20
2019-06-07T03:20:11.225Z,16.00
2019-06-07T03:22:42.981Z,16.10
2019-06-07T03:25:13.920Z,16.10
2019-06-07T03:27:49.893Z,15.90
2019-06-07T03:30:39.156Z,15.90
2019-06-07T03:32:48.664Z,15.80
2019-06-07T03:35:19.064Z,15.80
2019-06-07T03:37:49.229Z,15.70
2019-06-07T03:40:19.381Z,15.60
2019-06-07T03:42:49.553Z,15.70
2019-06-07T03:45:19.629Z,15.70
2019-06-07T03:47:49.800Z,15.70
2019-06-07T03:50:21.036Z,15.80
2019-06-07T03:52:51.461Z,15.90
2019-06-07T03:55:21.710Z,15.90
2019-06-07T04:00:23.727Z,15.90
2019-06-07T04:02:53.927Z,16.00
2019-06-07T04:05:24.145Z,16.00
2019-06-07T04:07:54.313Z,16.10
2019-06-07T04:10:44.732Z,16.10
2019-06-07T04:12:56.305Z,16.20
2019-06-07T04:15:26.439Z,16.30
2019-06-07T04:18:01.842Z,16.30
2019-06-07T04:20:29.494Z,16.50
2019-06-07T04:23:00.131Z,16.70
2019-06-07T04:25:33.878Z,16.90
2019-06-07T04:28:02.081Z,17.10
2019-06-07T04:30:45.525Z,17.50
2019-06-07T04:33:15.695Z,17.80
2019-06-07T04:35:45.955Z,18.30
2019-06-07T04:38:16.117Z,18.60
2019-06-07T04:40:47.246Z,18.70
2019-06-07T04:43:17.437Z,18.80
2019-06-07T04:45:51.431Z,19.40
2019-06-07T04:48:21.901Z,19.90
2019-06-07T04:50:54.830Z,20.20
2019-06-07T04:53:25.056Z,20.10
2019-06-07T04:55:55.663Z,20.20
2019-06-07T04:58:25.777Z,20.60
2019-06-07T05:01:02.600Z,21.30
2019-06-07T05:03:27.797Z,20.80
2019-06-07T05:05:58.041Z,20.80
2019-06-07T05:08:30.369Z,21.30
2019-06-07T05:11:00.107Z,21.60
2019-06-07T05:13:31.484Z,22.20
2019-06-07T05:16:02.051Z,23.20
2019-06-07T05:18:35.186Z,22.90
2019-06-07T05:21:03.951Z,23.20
2019-06-07T05:26:05.805Z,24.40
2019-06-07T05:28:37.855Z,23.60
2019-06-07T05:31:08.121Z,24.00
2019-06-07T05:33:40.301Z,23.70
2019-06-07T05:36:10.193Z,23.00
2019-06-07T05:38:42.557Z,22.90
2019-06-07T05:41:12.217Z,23.90
2019-06-07T05:43:51.511Z,23.60
2019-06-07T05:46:14.108Z,23.20
2019-06-07T05:48:44.261Z,24.20
2019-06-07T05:51:14.428Z,24.30
2019-06-07T05:53:45.995Z,24.70
2019-06-07T05:56:16.869Z,25.30
2019-06-07T05:58:47.413Z,25.20
2019-06-07T06:03:49.203Z,25.40
2019-06-07T06:06:19.619Z,24.20
2019-06-07T06:08:49.718Z,24.90
2019-06-07T06:11:19.835Z,24.40
2019-06-07T06:14:07.284Z,23.60
2019-06-07T06:16:21.735Z,24.00
2019-06-07T06:18:51.831Z,25.50
2019-06-07T06:21:22.177Z,25.70
2019-06-07T06:23:54.036Z,25.70
2019-06-07T06:26:24.337Z,25.80
2019-06-07T06:28:54.473Z,25.50
2019-06-07T06:31:24.671Z,25.00
2019-06-07T06:33:54.855Z,24.20
2019-06-07T06:36:25.029Z,23.80
2019-06-07T06:38:55.258Z,23.40
2019-06-07T06:41:25.382Z,23.60
2019-06-07T06:43:55.539Z,23.30
2019-06-07T06:46:38.863Z,23.10
2019-06-07T06:48:57.567Z,23.30
2019-06-07T06:51:27.691Z,23.50
2019-06-07T06:53:57.873Z,23.30
2019-06-07T06:56:27.888Z,23.00
2019-06-07T06:59:35.176Z,22.70
2019-06-07T07:01:30.978Z,22.90
2019-06-07T07:04:12.159Z,23.40
2019-06-07T07:06:33.591Z,23.10
2019-06-07T07:09:05.294Z,23.20
2019-06-07T07:11:52.308Z,23.60
2019-06-07T07:14:07.318Z,23.50
2019-06-07T07:16:37.421Z,23.60
2019-06-07T07:19:07.572Z,24.10
2019-06-07T07:21:37.668Z,23.60
2019-06-07T07:24:20.954Z,23.40
2019-06-07T07:26:39.686Z,23.70
2019-06-07T07:29:09.763Z,23.80
2019-06-07T07:31:39.936Z,24.20
2019-06-07T07:34:31.888Z,24.60
2019-06-07T07:36:47.116Z,24.50
2019-06-07T07:39:14.106Z,24.10
2019-06-07T07:42:04.497Z,24.70
2019-06-07T07:44:19.500Z,25.20
2019-06-07T07:46:53.797Z,25.30
2019-06-07T07:49:22.529Z,25.30
2019-06-07T07:51:56.525Z,25.20
2019-06-07T07:54:35.544Z,25.90
2019-06-07T07:57:12.503Z,25.30
2019-06-07T08:00:00.498Z,24.70
2019-06-07T08:02:14.535Z,24.00
2019-06-07T08:07:16.493Z,24.10
2019-06-07T08:09:47.480Z,24.70
2019-06-07T08:12:18.379Z,24.80
2019-06-07T08:14:51.206Z,24.20
2019-06-07T08:17:20.464Z,24.40
2019-06-07T08:19:52.287Z,25.20
2019-06-07T08:22:22.414Z,25.50
2019-06-07T08:24:53.718Z,24.70
2019-06-07T08:27:26.713Z,24.60
2019-06-07T08:30:18.473Z,24.30
2019-06-07T08:32:27.729Z,24.60
2019-06-07T08:35:03.312Z,24.80
2019-06-07T08:38:13.354Z,24.90
2019-06-07T08:40:02.042Z,25.10
2019-06-07T08:42:37.326Z,25.90
2019-06-07T08:45:06.781Z,25.40
2019-06-07T08:47:37.004Z,25.20
2019-06-07T08:50:09.139Z,25.40
2019-06-07T08:52:39.573Z,24.90
2019-06-07T08:55:11.853Z,25.00
2019-06-07T08:57:41.941Z,25.20
2019-06-07T09:00:47.877Z,25.60
2019-06-07T09:02:44.865Z,25.90
2019-06-07T09:05:15.529Z,25.80
2019-06-07T09:07:45.692Z,25.90
2019-06-07T09:10:16.538Z,26.10
2019-06-07T09:12:46.723Z,26.10
2019-06-07T09:15:23.557Z,26.20
2019-06-07T09:20:36.320Z,26.40
2019-06-07T09:22:57.770Z,26.10
2019-06-07T09:25:25.656Z,26.20
2019-06-07T09:28:00.599Z,25.60
2019-06-07T09:30:39.279Z,25.30
2019-06-07T09:33:11.496Z,25.20
2019-06-07T09:35:41.719Z,25.60
2019-06-07T09:38:24.154Z,25.90
2019-06-07T09:40:43.728Z,25.70
2019-06-07T09:45:45.596Z,25.90
2019-06-07T09:48:34.394Z,25.50
2019-06-07T09:50:47.464Z,25.50
2019-06-07T09:53:22.488Z,25.80
2019-06-07T09:55:49.426Z,26.20
2019-06-07T10:00:51.211Z,25.90
2019-06-07T10:03:22.764Z,25.90
2019-06-07T10:05:53.405Z,25.50
2019-06-07T10:09:42.636Z,25.40
2019-06-07T10:10:55.135Z,25.40
2019-06-07T10:13:25.352Z,25.70
2019-06-07T10:15:55.451Z,25.90
2019-06-07T10:18:26.596Z,25.90
2019-06-07T10:20:56.812Z,26.10
2019-06-07T10:23:27.029Z,26.10
2019-06-07T10:25:57.130Z,26.20
2019-06-07T10:28:27.229Z,26.40
2019-06-07T10:30:57.402Z,26.80
2019-06-07T10:33:27.552Z,26.60
2019-06-07T10:35:57.677Z,26.80
2019-06-07T10:38:27.841Z,26.80
2019-06-07T10:40:57.930Z,26.60
2019-06-07T10:43:28.029Z,26.50
2019-06-07T10:45:58.255Z,26.50
2019-06-07T10:48:28.413Z,26.70
2019-06-07T10:50:58.556Z,26.60
2019-06-07T10:53:28.734Z,27.00
2019-06-07T10:55:58.898Z,27.10
2019-06-07T10:58:29.130Z,27.30
2019-06-07T11:00:59.245Z,27.00
2019-06-07T11:03:29.279Z,27.00
2019-06-07T11:05:59.445Z,26.70
2019-06-07T11:08:29.601Z,26.80
2019-06-07T11:10:59.767Z,27.10
2019-06-07T11:13:29.775Z,27.10
2019-06-07T11:15:59.913Z,26.60
2019-06-07T11:18:30.044Z,27.10
2019-06-07T11:21:00.144Z,27.20
2019-06-07T11:23:30.226Z,27.30
2019-06-07T11:26:00.322Z,27.40
2019-06-07T11:28:30.374Z,27.30
2019-06-07T11:31:00.508Z,27.60
2019-06-07T11:33:30.652Z,27.50
2019-06-07T11:36:00.749Z,27.80
2019-06-07T11:38:30.767Z,27.00
2019-06-07T11:41:00.928Z,27.00
2019-06-07T11:43:31.105Z,27.00
2019-06-07T11:46:01.332Z,27.10
2019-06-07T11:48:31.413Z,27.10
2019-06-07T11:51:01.470Z,26.90
2019-06-07T11:53:31.554Z,26.60
2019-06-07T11:56:01.764Z,27.20
2019-06-07T11:58:31.878Z,27.60
2019-06-07T12:01:01.970Z,27.60
2019-06-07T12:03:32.199Z,27.80
2019-06-07T12:06:02.354Z,27.70
2019-06-07T12:08:32.588Z,27.90
2019-06-07T12:11:02.724Z,27.60
2019-06-07T12:13:32.908Z,27.90
2019-06-07T12:16:02.985Z,27.50
2019-06-07T12:18:33.228Z,27.60
2019-06-07T12:21:03.372Z,27.30
2019-06-07T12:23:33.541Z,27.60
2019-06-07T12:26:03.679Z,27.60
2019-06-07T12:28:33.906Z,27.70
2019-06-07T12:31:04.137Z,27.80
2019-06-07T12:33:34.447Z,27.70
2019-06-07T12:36:05.018Z,27.80
2019-06-07T12:38:42.473Z,27.70
2019-06-07T12:41:12.626Z,28.10
2019-06-07T12:43:42.887Z,28.00
2019-06-07T12:46:15.442Z,28.30
2019-06-07T12:48:44.970Z,28.30
2019-06-07T12:51:15.236Z,28.30
2019-06-07T12:53:45.297Z,28.10
2019-06-07T12:56:15.685Z,28.40
2019-06-07T12:58:45.723Z,28.10
2019-06-07T13:01:15.987Z,28.10
2019-06-07T13:03:46.117Z,28.40
2019-06-07T13:06:17.490Z,28.70
2019-06-07T13:08:47.848Z,29.10
2019-06-07T13:11:24.580Z,29.40
2019-06-07T13:13:49.718Z,29.20
2019-06-07T13:16:20.040Z,28.90
2019-06-07T13:18:51.120Z,29.00
2019-06-07T13:21:22.332Z,29.50
2019-06-07T13:23:52.595Z,29.30
2019-06-07T13:26:23.204Z,28.70
2019-06-07T13:28:55.513Z,28.90
2019-06-07T13:31:25.647Z,28.60
2019-06-07T13:33:55.870Z,29.10
2019-06-07T13:36:26.013Z,29.20
2019-06-07T13:38:57.284Z,29.40
2019-06-07T13:41:40.499Z,29.30
2019-06-07T13:43:59.076Z,29.50
2019-06-07T13:46:29.230Z,28.80
2019-06-07T13:48:59.299Z,28.90
2019-06-07T13:51:33.034Z,28.50
2019-06-07T13:54:02.476Z,28.70
2019-06-07T13:56:32.639Z,28.90
2019-06-07T13:59:02.796Z,28.80
2019-06-07T14:01:32.897Z,29.60
2019-06-07T14:04:03.105Z,29.20
2019-06-07T14:06:33.330Z,29.30
2019-06-07T14:09:04.154Z,29.30
2019-06-07T14:11:49.539Z,29.50
2019-06-07T14:14:06.354Z,29.60
2019-06-07T14:16:36.449Z,29.60
2019-06-07T14:19:06.631Z,29.60
2019-06-07T14:21:36.912Z,29.60
2019-06-07T14:24:07.025Z,29.20
2019-06-07T14:26:37.212Z,29.00
2019-06-07T14:29:07.218Z,29.10
2019-06-07T14:31:37.309Z,28.60
2019-06-07T14:34:07.515Z,28.90
2019-06-07T14:36:37.722Z,29.60
2019-06-07T14:39:07.861Z,29.70
2019-06-07T14:41:37.976Z,30.00
2019-06-07T14:44:08.193Z,29.90
2019-06-07T14:46:38.362Z,29.90
2019-06-07T14:49:08.509Z,29.70
2019-06-07T14:51:38.589Z,29.50
2019-06-07T14:54:08.814Z,29.50
2019-06-07T14:56:38.918Z,29.60
2019-06-07T14:59:09.059Z,29.80
2019-06-07T15:01:40.828Z,29.40
2019-06-07T15:04:11.021Z,29.10
2019-06-07T15:06:41.169Z,29.60
2019-06-07T15:09:11.320Z,29.60
2019-06-07T15:11:41.472Z,29.80
2019-06-07T15:14:11.633Z,30.00
2019-06-07T15:16:41.802Z,30.50
2019-06-07T15:19:14.455Z,30.60
2019-06-07T15:21:44.694Z,30.50
2019-06-07T15:24:14.775Z,30.10
2019-06-07T15:26:45.016Z,30.50
2019-06-07T15:29:16.096Z,30.50
2019-06-07T15:31:46.277Z,30.30
2019-06-07T15:34:16.420Z,30.10
2019-06-07T15:36:46.617Z,30.10
2019-06-07T15:39:16.753Z,30.70
2019-06-07T15:41:46.856Z,30.80
2019-06-07T15:44:16.865Z,31.40
2019-06-07T15:46:46.942Z,31.50
2019-06-07T15:49:17.031Z,31.90
2019-06-07T15:51:47.165Z,32.00
2019-06-07T15:54:17.223Z,32.10
2019-06-07T15:56:47.430Z,32.50
2019-06-07T15:59:17.581Z,33.10
2019-06-07T16:01:47.730Z,32.90
2019-06-07T16:04:17.969Z,32.70
2019-06-07T16:06:47.975Z,32.00
2019-06-07T16:09:18.210Z,31.70
2019-06-07T16:11:48.523Z,31.70
2019-06-07T16:14:18.769Z,32.00
2019-06-07T16:16:48.861Z,32.00
2019-06-07T16:19:19.062Z,32.90
2019-06-07T16:21:49.256Z,31.80
2019-06-07T16:24:19.415Z,30.90
2019-06-07T16:26:49.577Z,30.10
2019-06-07T16:29:19.787Z,29.80
2019-06-07T16:31:50.018Z,29.20
2019-06-07T16:34:20.030Z,29.00
2019-06-07T16:36:50.190Z,29.00
2019-06-07T16:39:20.419Z,28.50
2019-06-07T16:41:50.647Z,28.60
2019-06-07T16:44:20.792Z,28.90
2019-06-07T16:46:50.939Z,29.20
2019-06-07T16:49:21.121Z,29.30
2019-06-07T16:51:51.205Z,29.00
2019-06-07T16:54:21.423Z,28.50
2019-06-07T16:56:51.642Z,28.30
2019-06-07T16:59:21.666Z,28.40
2019-06-07T17:01:51.867Z,28.60
2019-06-07T17:04:23.130Z,28.40
2019-06-07T17:06:53.197Z,28.40
2019-06-07T17:09:23.368Z,28.50
2019-06-07T17:11:53.512Z,28.50
2019-06-07T17:14:23.673Z,28.50
2019-06-07T17:16:53.833Z,28.70
2019-06-07T17:19:23.859Z,28.70
2019-06-07T17:21:54.003Z,28.40
2019-06-07T17:24:26.714Z,27.90
2019-06-07T17:26:55.872Z,27.60
2019-06-07T17:29:26.052Z,27.30
2019-06-07T17:31:56.124Z,27.10
2019-06-07T17:34:26.215Z,26.80
2019-06-07T17:36:56.480Z,26.40
2019-06-07T17:39:26.698Z,26.20
2019-06-07T17:42:02.019Z,26.00
2019-06-07T17:44:28.485Z,26.00
2019-06-07T17:46:58.653Z,25.90
2019-06-07T17:49:28.795Z,26.00
2019-06-07T17:51:59.659Z,26.00
2019-06-07T17:54:29.671Z,25.90
2019-06-07T17:56:59.756Z,25.80
2019-06-07T17:59:29.835Z,25.70
2019-06-07T18:02:13.977Z,25.60
2019-06-07T18:04:31.832Z,25.50
2019-06-07T18:07:01.981Z,25.30
2019-06-07T18:09:32.745Z,25.20
2019-06-07T18:12:02.928Z,25.20
2019-06-07T18:14:33.136Z,25.00
2019-06-07T18:17:03.352Z,24.90
2019-06-07T18:19:33.492Z,24.70
2019-06-07T18:22:03.592Z,24.60
2019-06-07T18:24:34.800Z,24.50
2019-06-07T18:27:07.077Z,24.40
2019-06-07T18:29:36.789Z,24.30
2019-06-07T18:32:06.882Z,24.20
2019-06-07T18:34:37.023Z,24.20
2019-06-07T18:37:07.267Z,24.10
2019-06-07T18:39:37.489Z,24.00
2019-06-07T18:42:07.635Z,23.90
2019-06-07T18:44:37.711Z,23.80
2019-06-07T18:47:08.102Z,23.70
2019-06-07T18:49:39.389Z,23.70
2019-06-07T18:52:13.798Z,23.70
2019-06-07T18:54:43.970Z,23.70
2019-06-07T18:57:14.260Z,23.70
2019-06-07T18:59:44.428Z,23.70
2019-06-07T19:02:14.586Z,23.60
2019-06-07T19:04:44.600Z,23.60
2019-06-07T19:07:14.684Z,23.60
2019-06-07T19:09:46.364Z,23.60
2019-06-07T19:12:16.592Z,23.50
2019-06-07T19:14:47.412Z,23.40
2019-06-07T19:17:17.583Z,23.40
2019-06-07T19:19:49.856Z,23.40
2019-06-07T19:22:20.037Z,23.40
2019-06-07T19:24:50.212Z,23.40
2019-06-07T19:27:21.327Z,23.50
2019-06-07T19:29:52.664Z,23.50
2019-06-07T19:32:22.977Z,23.40
2019-06-07T19:34:53.233Z,23.40
2019-06-07T19:37:23.377Z,23.30
2019-06-07T19:39:55.603Z,23.30
2019-06-07T19:42:27.129Z,23.30
2019-06-07T19:45:08.812Z,23.40
2019-06-07T19:47:29.145Z,23.30
2019-06-07T19:49:59.313Z,23.20
2019-06-07T19:52:30.464Z,23.20
2019-06-07T19:55:05.784Z,23.10
2019-06-07T19:57:32.407Z,23.10
2019-06-07T20:00:07.755Z,23.10
2019-06-07T20:02:34.556Z,23.20
2019-06-07T20:05:06.965Z,23.10
2019-06-07T20:07:37.237Z,23.10
2019-06-07T20:10:07.469Z,23.00
2019-06-07T20:12:37.636Z,23.00
2019-06-07T20:15:27.254Z,23.00
2019-06-07T20:17:39.740Z,23.00
2019-06-07T20:20:10.865Z,23.10
2019-06-07T20:22:41.108Z,23.00
2019-06-07T20:25:12.533Z,23.00
2019-06-07T20:27:42.695Z,23.00
2019-06-07T20:30:13.512Z,22.90
2019-06-07T20:32:43.609Z,22.90
2019-06-07T20:35:13.928Z,22.90
2019-06-07T20:37:44.081Z,22.90
2019-06-07T20:40:23.547Z,22.90
2019-06-07T20:42:46.088Z,22.90
2019-06-07T20:45:30.085Z,22.80
2019-06-07T20:47:48.196Z,22.80
2019-06-07T20:50:18.859Z,22.80
2019-06-07T20:52:48.948Z,22.80
2019-06-07T20:55:19.504Z,22.70
2019-06-07T20:57:49.542Z,22.70
2019-06-07T21:00:22.139Z,22.70
2019-06-07T21:02:51.503Z,22.80
2019-06-07T21:05:21.662Z,22.70
2019-06-07T21:07:51.897Z,22.70
2019-06-07T21:10:21.915Z,22.70
2019-06-07T21:12:51.972Z,22.60
2019-06-07T21:15:22.204Z,22.60
2019-06-07T21:17:52.294Z,22.50
2019-06-07T21:20:22.608Z,22.60
2019-06-07T21:22:52.820Z,22.50
2019-06-07T21:25:23.053Z,22.50
2019-06-07T21:27:53.119Z,22.50
2019-06-07T21:30:23.348Z,22.50
2019-06-07T21:32:53.610Z,22.40
2019-06-07T21:35:23.685Z,22.50
2019-06-07T21:37:53.871Z,22.40
2019-06-07T21:40:24.016Z,22.50
2019-06-07T21:42:54.243Z,22.50
2019-06-07T21:45:24.402Z,22.40
2019-06-07T21:47:54.572Z,22.40
2019-06-07T21:50:24.719Z,22.50
2019-06-07T21:52:54.892Z,22.40
2019-06-07T21:55:24.981Z,22.40
2019-06-07T21:57:55.149Z,22.40
2019-06-07T22:00:53.536Z,22.50
2019-06-07T22:03:24.163Z,22.30
2019-06-07T22:05:54.317Z,22.30
2019-06-07T22:08:24.504Z,22.20
2019-06-07T22:10:54.656Z,22.20
2019-06-07T22:13:24.791Z,22.10
2019-06-07T22:15:54.973Z,22.00
2019-06-07T22:18:25.191Z,21.90
2019-06-07T22:20:55.364Z,21.70
2019-06-07T22:23:25.661Z,21.70
2019-06-07T22:25:55.828Z,21.60
2019-06-07T22:28:25.972Z,21.50
2019-06-07T22:30:56.076Z,21.40
2019-06-07T22:33:26.239Z,21.30
2019-06-07T22:35:56.330Z,21.20
2019-06-07T22:38:26.548Z,21.10
2019-06-07T22:40:56.791Z,21.20
2019-06-07T22:43:27.010Z,21.20
2019-06-07T22:45:57.252Z,21.10
2019-06-07T22:48:27.485Z,21.10
2019-06-07T22:50:59.208Z,21.00
2019-06-07T22:53:29.310Z,21.00
2019-06-07T22:56:01.036Z,20.90
2019-06-07T22:58:31.241Z,20.80
2019-06-07T23:01:01.317Z,20.90
2019-06-07T23:03:31.492Z,20.80
2019-06-07T23:06:01.510Z,20.80
2019-06-07T23:08:32.693Z,20.90
2019-06-07T23:11:02.916Z,20.90
2019-06-07T23:13:33.008Z,21.00
2019-06-07T23:16:03.263Z,21.00
2019-06-07T23:18:33.488Z,21.00
2019-06-07T23:21:03.661Z,21.00
2019-06-07T23:23:33.749Z,21.00
2019-06-07T23:26:04.552Z,21.00
2019-06-07T23:28:35.198Z,21.00
2019-06-07T23:31:05.256Z,21.00
2019-06-07T23:33:35.476Z,20.90
2019-06-07T23:36:05.715Z,20.90
2019-06-07T23:38:36.479Z,20.90
2019-06-07T23:41:06.636Z,20.90
2019-06-07T23:43:36.717Z,20.90
2019-06-07T23:46:06.750Z,20.90
2019-06-07T23:48:36.769Z,20.80
2019-06-07T23:51:06.819Z,20.70
2019-06-07T23:53:36.909Z,20.60
2019-06-07T23:56:07.009Z,20.60
2019-06-07T23:58:37.177Z,20.60
